Drennen, WV (26667)

2:41 PM EST on December 08, 2016 (GMT -0500)
Summersville | | Change Station

Elev 1932 ft 38.30 °N, 80.84 °W | Updated 21 seconds ago

Clear
Clear
34.3 °F
Feels Like 29 °F
N
5.8
Wind Variable Wind from SSW

Today
High -- | Low -- °F
--% Chance of Precip.
Yesterday
High -- | Low -- °F
Precip. -- in
Pressure 30.20 in
Visibility 10.0 miles
Clouds Scattered Clouds 4800 ft
Scattered Clouds 30000 ft
Windchill 29 °F
Dew Point 18 °F
Humidity 52%
Rainfall 0.00 in
Snow Depth Not available.
7:28 AM 5:03 PM
Waxing Gibbous, 66% visible
METAR KCRW 081854Z 29008G23KT 10SM SCT048 SCT300 03/M09 A3018 RMK AO2 SLP226 T00331089
Pressure 30.20 in
Visibility 10.0 miles
Clouds Scattered Clouds 4800 ft
Scattered Clouds 30000 ft
Windchill 29 °F
Dew Point 18 °F
Humidity 52%
Rainfall 0.00 in
Snow Depth Not available.
7:28 AM 5:03 PM
Waxing Gibbous, 66% visible
METAR KCRW 081854Z 29008G23KT 10SM SCT048 SCT300 03/M09 A3018 RMK AO2 SLP226 T00331089

10-Day Weather Forecast

Almanac

Astronomy

Dec. 08, 2016 Rise Set
Actual Time
Civil Twilight
Nautical Twilight
Astronomical Twilight
Moon
Length of Visible Light
Length of Day
Tomorrow will be .
, % of the Moon is Illuminated

Today's Extremes

State Highs State Lows

Community

WunderPhotos

Upload Photos

1,956,277 photos uploaded!

WunderBlog® & News

Nearby

Air Quality

  Air Quality AQ Index Pollutant
Not available.

Snow Depth

Station Depth Elevation

Earthquake Activity

City Distance Mag. Time & Date
Minimum magnitude displayed is 2.5.

Coastal Water Temperatures

Place Temperature

Stations

Nearby Weather Stations

Station Location Temp. Windchill Dew Point Humidity Wind Precip. Elev Updated Type
                   

Watches & Warnings

There are currently no watches in effect.